<?xml version="1.0" encoding="UTF-8" standalone="no" ?>
<gpx xmlns="http://www.topografix.com/GPX/1/1" xmlns:xsi="http://www.w3.org/2001/XMLSchema-instance" xsi:schemaLocation="http://www.topografix.com/GPX/1/1 http://www.topografix.com/GPX/1/1/gpx.xsd" version="1.1" creator="VisuGPX - https://www.visugpx.com">
  <metadata>
    <name>Tuc de Moncalivert</name>
    <desc><![CDATA[Rando privée Tuc de Moncalivert]]></desc>
  </metadata>
  <trk>
    <name><![CDATA[21-07-2008]]></name>
    <trkseg>
      <trkpt lat="43.00225" lon="1.14463">
        <ele>351.499146</ele>
        <time>2008-07-21T11:59:44Z</time>
      </trkpt>
      <trkpt lat="43.00169" lon="1.14455">
        <ele>352.460571</ele>
        <time>2008-07-21T12:00:03Z</time>
      </trkpt>
      <trkpt lat="43.00148" lon="1.14453">
        <ele>355.344482</ele>
        <time>2008-07-21T12:00:07Z</time>
      </trkpt>
      <trkpt lat="43.00138" lon="1.1445">
        <ele>366.399536</ele>
        <time>2008-07-21T12:00:11Z</time>
      </trkpt>
      <trkpt lat="43.00139" lon="1.1445">
        <ele>379.858032</ele>
        <time>2008-07-21T12:00:16Z</time>
      </trkpt>
      <trkpt lat="43.00139" lon="1.1445">
        <ele>379.377441</ele>
        <time>2008-07-21T12:00:17Z</time>
      </trkpt>
      <trkpt lat="43.00137" lon="1.14447">
        <ele>382.261353</ele>
        <time>2008-07-21T12:00:19Z</time>
      </trkpt>
      <trkpt lat="43.00134" lon="1.14441">
        <ele>388.990601</ele>
        <time>2008-07-21T12:00:23Z</time>
      </trkpt>
      <trkpt lat="43.00133" lon="1.14436">
        <ele>393.316528</ele>
        <time>2008-07-21T12:00:26Z</time>
      </trkpt>
      <trkpt lat="43.00133" lon="1.14431">
        <ele>396.200562</ele>
        <time>2008-07-21T12:00:29Z</time>
      </trkpt>
      <trkpt lat="43.00133" lon="1.14426">
        <ele>400.045898</ele>
        <time>2008-07-21T12:00:32Z</time>
      </trkpt>
      <trkpt lat="43.00133" lon="1.14421">
        <ele>401.487793</ele>
        <time>2008-07-21T12:00:35Z</time>
      </trkpt>
      <trkpt lat="43.00136" lon="1.14389">
        <ele>407.255615</ele>
        <time>2008-07-21T12:00:53Z</time>
      </trkpt>
      <trkpt lat="43.00133" lon="1.14365">
        <ele>410.139648</ele>
        <time>2008-07-21T12:01:03Z</time>
      </trkpt>
      <trkpt lat="43.00135" lon="1.14314">
        <ele>411.581665</ele>
        <time>2008-07-21T12:01:27Z</time>
      </trkpt>
      <trkpt lat="43.00142" lon="1.14279">
        <ele>412.062256</ele>
        <time>2008-07-21T12:01:48Z</time>
      </trkpt>
      <trkpt lat="43.00146" lon="1.14273">
        <ele>415.42688</ele>
        <time>2008-07-21T12:02:04Z</time>
      </trkpt>
      <trkpt lat="43.00145" lon="1.14274">
        <ele>415.42688</ele>
        <time>2008-07-21T12:02:43Z</time>
      </trkpt>
      <trkpt lat="43.00148" lon="1.14274">
        <ele>416.868896</ele>
        <time>2008-07-21T12:05:14Z</time>
      </trkpt>
      <trkpt lat="43.00145" lon="1.14284">
        <ele>417.8302</ele>
        <time>2008-07-21T12:07:47Z</time>
      </trkpt>
      <trkpt lat="43.00148" lon="1.1428">
        <ele>418.310791</ele>
        <time>2008-07-21T12:09:02Z</time>
      </trkpt>
      <trkpt lat="43.00147" lon="1.14284">
        <ele>418.791504</ele>
        <time>2008-07-21T12:11:03Z</time>
      </trkpt>
      <trkpt lat="43.00149" lon="1.14284">
        <ele>420.714111</ele>
        <time>2008-07-21T12:12:15Z</time>
      </trkpt>
      <trkpt lat="43.00149" lon="1.14273">
        <ele>421.675415</ele>
        <time>2008-07-21T12:12:49Z</time>
      </trkpt>
      <trkpt lat="43.0016" lon="1.1428">
        <ele>420.714111</ele>
        <time>2008-07-21T12:15:18Z</time>
      </trkpt>
      <trkpt lat="43.0015" lon="1.14285">
        <ele>421.675415</ele>
        <time>2008-07-21T12:17:12Z</time>
      </trkpt>
      <trkpt lat="43.00147" lon="1.14272">
        <ele>422.156006</ele>
        <time>2008-07-21T12:18:31Z</time>
      </trkpt>
      <trkpt lat="43.00152" lon="1.1427">
        <ele>421.675415</ele>
        <time>2008-07-21T12:18:49Z</time>
      </trkpt>
      <trkpt lat="43.00162" lon="1.14248">
        <ele>418.791504</ele>
        <time>2008-07-21T12:19:07Z</time>
      </trkpt>
      <trkpt lat="43.00163" lon="1.14254">
        <ele>418.310791</ele>
        <time>2008-07-21T12:19:10Z</time>
      </trkpt>
      <trkpt lat="43.00164" lon="1.14245">
        <ele>418.310791</ele>
        <time>2008-07-21T12:19:25Z</time>
      </trkpt>
      <trkpt lat="43.00174" lon="1.14209">
        <ele>417.349609</ele>
        <time>2008-07-21T12:19:45Z</time>
      </trkpt>
      <trkpt lat="43.00174" lon="1.14165">
        <ele>416.388184</ele>
        <time>2008-07-21T12:20:09Z</time>
      </trkpt>
      <trkpt lat="43.00171" lon="1.14141">
        <ele>415.907471</ele>
        <time>2008-07-21T12:20:31Z</time>
      </trkpt>
      <trkpt lat="43.00178" lon="1.14116">
        <ele>413.984863</ele>
        <time>2008-07-21T12:20:56Z</time>
      </trkpt>
      <trkpt lat="43.00193" lon="1.14066">
        <ele>412.542847</ele>
        <time>2008-07-21T12:21:24Z</time>
      </trkpt>
      <trkpt lat="43.00214" lon="1.14026">
        <ele>411.100952</ele>
        <time>2008-07-21T12:21:53Z</time>
      </trkpt>
      <trkpt lat="43.00224" lon="1.13979">
        <ele>410.139648</ele>
        <time>2008-07-21T12:22:16Z</time>
      </trkpt>
      <trkpt lat="43.00226" lon="1.13973">
        <ele>411.581665</ele>
        <time>2008-07-21T12:22:19Z</time>
      </trkpt>
      <trkpt lat="43.00218" lon="1.13915">
        <ele>412.062256</ele>
        <time>2008-07-21T12:22:48Z</time>
      </trkpt>
      <trkpt lat="43.00196" lon="1.13833">
        <ele>417.349609</ele>
        <time>2008-07-21T12:23:34Z</time>
      </trkpt>
      <trkpt lat="43.0019" lon="1.13804">
        <ele>419.272217</ele>
        <time>2008-07-21T12:23:52Z</time>
      </trkpt>
      <trkpt lat="43.00189" lon="1.13801">
        <ele>419.752808</ele>
        <time>2008-07-21T12:24:11Z</time>
      </trkpt>
      <trkpt lat="43.00183" lon="1.13776">
        <ele>417.349609</ele>
        <time>2008-07-21T12:24:40Z</time>
      </trkpt>
      <trkpt lat="43.00188" lon="1.13747">
        <ele>419.752808</ele>
        <time>2008-07-21T12:25:04Z</time>
      </trkpt>
      <trkpt lat="43.00215" lon="1.13712">
        <ele>421.194824</ele>
        <time>2008-07-21T12:26:18Z</time>
      </trkpt>
      <trkpt lat="43.00248" lon="1.13578">
        <ele>430.807983</ele>
        <time>2008-07-21T12:27:25Z</time>
      </trkpt>
      <trkpt lat="43.00343" lon="1.13585">
        <ele>433.691895</ele>
        <time>2008-07-21T12:28:33Z</time>
      </trkpt>
      <trkpt lat="43.00342" lon="1.13588">
        <ele>432.25</ele>
        <time>2008-07-21T12:28:36Z</time>
      </trkpt>
      <trkpt lat="43.00334" lon="1.13602">
        <ele>432.730713</ele>
        <time>2008-07-21T12:28:46Z</time>
      </trkpt>
      <trkpt lat="43.0035" lon="1.1364">
        <ele>436.095215</ele>
        <time>2008-07-21T12:29:12Z</time>
      </trkpt>
      <trkpt lat="43.00368" lon="1.13667">
        <ele>434.172607</ele>
        <time>2008-07-21T12:29:38Z</time>
      </trkpt>
      <trkpt lat="43.00416" lon="1.13723">
        <ele>433.211304</ele>
        <time>2008-07-21T12:30:21Z</time>
      </trkpt>
      <trkpt lat="43.00437" lon="1.13753">
        <ele>434.65332</ele>
        <time>2008-07-21T12:30:45Z</time>
      </trkpt>
      <trkpt lat="43.00436" lon="1.13757">
        <ele>437.537109</ele>
        <time>2008-07-21T12:31:03Z</time>
      </trkpt>
      <trkpt lat="43.00429" lon="1.13767">
        <ele>439.94043</ele>
        <time>2008-07-21T12:31:17Z</time>
      </trkpt>
      <trkpt lat="43.00417" lon="1.13801">
        <ele>443.305054</ele>
        <time>2008-07-21T12:31:42Z</time>
      </trkpt>
      <trkpt lat="43.00411" lon="1.13809">
        <ele>442.824463</ele>
        <time>2008-07-21T12:31:51Z</time>
      </trkpt>
      <trkpt lat="43.00386" lon="1.13828">
        <ele>440.901855</ele>
        <time>2008-07-21T12:32:18Z</time>
      </trkpt>
      <trkpt lat="43.00377" lon="1.13828">
        <ele>440.421265</ele>
        <time>2008-07-21T12:32:25Z</time>
      </trkpt>
      <trkpt lat="43.00354" lon="1.13847">
        <ele>435.614502</ele>
        <time>2008-07-21T12:32:44Z</time>
      </trkpt>
      <trkpt lat="43.00346" lon="1.13858">
        <ele>436.095215</ele>
        <time>2008-07-21T12:33:06Z</time>
      </trkpt>
      <trkpt lat="43.00345" lon="1.13859">
        <ele>432.730713</ele>
        <time>2008-07-21T12:33:08Z</time>
      </trkpt>
      <trkpt lat="43.00322" lon="1.13878">
        <ele>432.25</ele>
        <time>2008-07-21T12:33:33Z</time>
      </trkpt>
      <trkpt lat="43.0032" lon="1.13881">
        <ele>432.730713</ele>
        <time>2008-07-21T12:33:46Z</time>
      </trkpt>
      <trkpt lat="43.00321" lon="1.1388">
        <ele>432.730713</ele>
        <time>2008-07-21T12:33:47Z</time>
      </trkpt>
      <trkpt lat="43.00325" lon="1.13878">
        <ele>433.691895</ele>
        <time>2008-07-21T12:34:10Z</time>
      </trkpt>
      <trkpt lat="43.00337" lon="1.13873">
        <ele>435.614502</ele>
        <time>2008-07-21T12:34:26Z</time>
      </trkpt>
      <trkpt lat="43.00343" lon="1.13872">
        <ele>436.095215</ele>
        <time>2008-07-21T12:34:45Z</time>
      </trkpt>
      <trkpt lat="43.0036" lon="1.13857">
        <ele>438.979126</ele>
        <time>2008-07-21T12:35:04Z</time>
      </trkpt>
      <trkpt lat="43.00365" lon="1.13848">
        <ele>439.94043</ele>
        <time>2008-07-21T12:35:19Z</time>
      </trkpt>
      <trkpt lat="43.0037" lon="1.13842">
        <ele>440.421265</ele>
        <time>2008-07-21T12:35:31Z</time>
      </trkpt>
      <trkpt lat="43.00377" lon="1.13837">
        <ele>442.824463</ele>
        <time>2008-07-21T12:35:39Z</time>
      </trkpt>
      <trkpt lat="43.00401" lon="1.13827">
        <ele>444.74707</ele>
        <time>2008-07-21T12:36:00Z</time>
      </trkpt>
      <trkpt lat="43.0042" lon="1.13823">
        <ele>444.266479</ele>
        <time>2008-07-21T12:36:18Z</time>
      </trkpt>
      <trkpt lat="43.00462" lon="1.13861">
        <ele>449.553711</ele>
        <time>2008-07-21T12:37:04Z</time>
      </trkpt>
      <trkpt lat="43.00478" lon="1.13878">
        <ele>452.918213</ele>
        <time>2008-07-21T12:37:50Z</time>
      </trkpt>
      <trkpt lat="43.00481" lon="1.13896">
        <ele>451.476318</ele>
        <time>2008-07-21T12:38:09Z</time>
      </trkpt>
      <trkpt lat="43.00465" lon="1.13923">
        <ele>448.111816</ele>
        <time>2008-07-21T12:38:32Z</time>
      </trkpt>
      <trkpt lat="43.00432" lon="1.13968">
        <ele>439.459717</ele>
        <time>2008-07-21T12:39:28Z</time>
      </trkpt>
      <trkpt lat="43.00433" lon="1.13987">
        <ele>438.979126</ele>
        <time>2008-07-21T12:39:59Z</time>
      </trkpt>
      <trkpt lat="43.0042" lon="1.13976">
        <ele>438.498535</ele>
        <time>2008-07-21T12:40:20Z</time>
      </trkpt>
      <trkpt lat="43.00544" lon="1.13978">
        <ele>426.001343</ele>
        <time>2008-07-21T12:41:56Z</time>
      </trkpt>
      <trkpt lat="43.00572" lon="1.13986">
        <ele>423.598022</ele>
        <time>2008-07-21T12:42:18Z</time>
      </trkpt>
      <trkpt lat="43.00575" lon="1.13981">
        <ele>425.040161</ele>
        <time>2008-07-21T12:42:34Z</time>
      </trkpt>
      <trkpt lat="43.00585" lon="1.13987">
        <ele>425.040161</ele>
        <time>2008-07-21T12:43:13Z</time>
      </trkpt>
      <trkpt lat="43.00606" lon="1.13986">
        <ele>426.482056</ele>
        <time>2008-07-21T12:43:34Z</time>
      </trkpt>
      <trkpt lat="43.00609" lon="1.13986">
        <ele>426.001343</ele>
        <time>2008-07-21T12:43:49Z</time>
      </trkpt>
      <trkpt lat="43.00616" lon="1.13989">
        <ele>426.962769</ele>
        <time>2008-07-21T12:44:06Z</time>
      </trkpt>
      <trkpt lat="43.00626" lon="1.14012">
        <ele>428.404663</ele>
        <time>2008-07-21T12:44:29Z</time>
      </trkpt>
      <trkpt lat="43.00636" lon="1.14038">
        <ele>431.769165</ele>
        <time>2008-07-21T12:44:55Z</time>
      </trkpt>
      <trkpt lat="43.00647" lon="1.14056">
        <ele>435.133911</ele>
        <time>2008-07-21T12:45:13Z</time>
      </trkpt>
      <trkpt lat="43.00654" lon="1.14082">
        <ele>438.017822</ele>
        <time>2008-07-21T12:45:37Z</time>
      </trkpt>
      <trkpt lat="43.00668" lon="1.14107">
        <ele>438.017822</ele>
        <time>2008-07-21T12:45:59Z</time>
      </trkpt>
      <trkpt lat="43.00682" lon="1.14107">
        <ele>438.017822</ele>
        <time>2008-07-21T12:46:49Z</time>
      </trkpt>
      <trkpt lat="43.00692" lon="1.14121">
        <ele>438.017822</ele>
        <time>2008-07-21T12:48:44Z</time>
      </trkpt>
      <trkpt lat="43.00706" lon="1.14136">
        <ele>437.056519</ele>
        <time>2008-07-21T12:49:01Z</time>
      </trkpt>
      <trkpt lat="43.00735" lon="1.14169">
        <ele>442.343872</ele>
        <time>2008-07-21T12:49:41Z</time>
      </trkpt>
      <trkpt lat="43.00752" lon="1.14188">
        <ele>444.74707</ele>
        <time>2008-07-21T12:50:04Z</time>
      </trkpt>
      <trkpt lat="43.00762" lon="1.142">
        <ele>446.669678</ele>
        <time>2008-07-21T12:50:18Z</time>
      </trkpt>
      <trkpt lat="43.00768" lon="1.14211">
        <ele>447.630981</ele>
        <time>2008-07-21T12:50:28Z</time>
      </trkpt>
      <trkpt lat="43.00779" lon="1.14218">
        <ele>448.111816</ele>
        <time>2008-07-21T12:50:37Z</time>
      </trkpt>
      <trkpt lat="43.00786" lon="1.14225">
        <ele>448.592407</ele>
        <time>2008-07-21T12:50:58Z</time>
      </trkpt>
      <trkpt lat="43.00812" lon="1.14255">
        <ele>449.553711</ele>
        <time>2008-07-21T12:51:38Z</time>
      </trkpt>
      <trkpt lat="43.00821" lon="1.14272">
        <ele>450.034424</ele>
        <time>2008-07-21T12:51:57Z</time>
      </trkpt>
      <trkpt lat="43.00829" lon="1.14283">
        <ele>451.476318</ele>
        <time>2008-07-21T12:52:19Z</time>
      </trkpt>
      <trkpt lat="43.00837" lon="1.14346">
        <ele>458.205566</ele>
        <time>2008-07-21T12:53:46Z</time>
      </trkpt>
      <trkpt lat="43.00828" lon="1.14371">
        <ele>461.57019</ele>
        <time>2008-07-21T12:54:10Z</time>
      </trkpt>
      <trkpt lat="43.00834" lon="1.1442">
        <ele>466.857422</ele>
        <time>2008-07-21T12:55:00Z</time>
      </trkpt>
      <trkpt lat="43.00836" lon="1.14453">
        <ele>469.260742</ele>
        <time>2008-07-21T12:55:26Z</time>
      </trkpt>
      <trkpt lat="43.00835" lon="1.14478">
        <ele>471.18335</ele>
        <time>2008-07-21T12:55:57Z</time>
      </trkpt>
      <trkpt lat="43.00836" lon="1.14503">
        <ele>474.067261</ele>
        <time>2008-07-21T12:56:13Z</time>
      </trkpt>
      <trkpt lat="43.0084" lon="1.14528">
        <ele>476.470581</ele>
        <time>2008-07-21T12:56:34Z</time>
      </trkpt>
      <trkpt lat="43.00849" lon="1.14553">
        <ele>478.393188</ele>
        <time>2008-07-21T12:56:55Z</time>
      </trkpt>
      <trkpt lat="43.00849" lon="1.14574">
        <ele>480.796631</ele>
        <time>2008-07-21T12:57:16Z</time>
      </trkpt>
      <trkpt lat="43.0084" lon="1.14582">
        <ele>478.393188</ele>
        <time>2008-07-21T12:57:39Z</time>
      </trkpt>
      <trkpt lat="43.00833" lon="1.14598">
        <ele>475.509277</ele>
        <time>2008-07-21T12:58:10Z</time>
      </trkpt>
      <trkpt lat="43.00831" lon="1.14604">
        <ele>475.028687</ele>
        <time>2008-07-21T12:58:16Z</time>
      </trkpt>
      <trkpt lat="43.00804" lon="1.14628">
        <ele>472.625366</ele>
        <time>2008-07-21T12:58:40Z</time>
      </trkpt>
      <trkpt lat="43.00781" lon="1.14643">
        <ele>471.18335</ele>
        <time>2008-07-21T12:59:02Z</time>
      </trkpt>
      <trkpt lat="43.00747" lon="1.14662">
        <ele>469.260742</ele>
        <time>2008-07-21T12:59:32Z</time>
      </trkpt>
      <trkpt lat="43.00735" lon="1.1467">
        <ele>467.818726</ele>
        <time>2008-07-21T12:59:51Z</time>
      </trkpt>
      <trkpt lat="43.00721" lon="1.14687">
        <ele>466.857422</ele>
        <time>2008-07-21T13:00:08Z</time>
      </trkpt>
      <trkpt lat="43.00697" lon="1.14717">
        <ele>463.492798</ele>
        <time>2008-07-21T13:00:30Z</time>
      </trkpt>
      <trkpt lat="43.00689" lon="1.1472">
        <ele>463.012085</ele>
        <time>2008-07-21T13:00:49Z</time>
      </trkpt>
      <trkpt lat="43.00689" lon="1.14725">
        <ele>463.973389</ele>
        <time>2008-07-21T13:01:05Z</time>
      </trkpt>
      <trkpt lat="43.00705" lon="1.14783">
        <ele>468.780029</ele>
        <time>2008-07-21T13:01:52Z</time>
      </trkpt>
      <trkpt lat="43.00712" lon="1.148">
        <ele>472.144653</ele>
        <time>2008-07-21T13:02:06Z</time>
      </trkpt>
      <trkpt lat="43.00719" lon="1.14819">
        <ele>475.028687</ele>
        <time>2008-07-21T13:02:25Z</time>
      </trkpt>
      <trkpt lat="43.00725" lon="1.1484">
        <ele>478.393188</ele>
        <time>2008-07-21T13:02:40Z</time>
      </trkpt>
      <trkpt lat="43.00733" lon="1.1486">
        <ele>481.277222</ele>
        <time>2008-07-21T13:02:59Z</time>
      </trkpt>
      <trkpt lat="43.00738" lon="1.14865">
        <ele>482.719238</ele>
        <time>2008-07-21T13:03:05Z</time>
      </trkpt>
      <trkpt lat="43.00749" lon="1.14891">
        <ele>486.564453</ele>
        <time>2008-07-21T13:03:28Z</time>
      </trkpt>
      <trkpt lat="43.00763" lon="1.14911">
        <ele>489.929077</ele>
        <time>2008-07-21T13:03:47Z</time>
      </trkpt>
      <trkpt lat="43.00775" lon="1.1494">
        <ele>491.851685</ele>
        <time>2008-07-21T13:04:12Z</time>
      </trkpt>
      <trkpt lat="43.00786" lon="1.14962">
        <ele>494.255005</ele>
        <time>2008-07-21T13:04:30Z</time>
      </trkpt>
      <trkpt lat="43.00787" lon="1.14969">
        <ele>494.735596</ele>
        <time>2008-07-21T13:04:35Z</time>
      </trkpt>
      <trkpt lat="43.00788" lon="1.14972">
        <ele>495.216187</ele>
        <time>2008-07-21T13:04:38Z</time>
      </trkpt>
      <trkpt lat="43.00806" lon="1.14988">
        <ele>494.255005</ele>
        <time>2008-07-21T13:04:54Z</time>
      </trkpt>
      <trkpt lat="43.0082" lon="1.14991">
        <ele>494.735596</ele>
        <time>2008-07-21T13:05:11Z</time>
      </trkpt>
      <trkpt lat="43.00845" lon="1.15012">
        <ele>491.370972</ele>
        <time>2008-07-21T13:05:36Z</time>
      </trkpt>
      <trkpt lat="43.00863" lon="1.15038">
        <ele>488.967773</ele>
        <time>2008-07-21T13:06:02Z</time>
      </trkpt>
      <trkpt lat="43.0087" lon="1.15049">
        <ele>488.967773</ele>
        <time>2008-07-21T13:06:24Z</time>
      </trkpt>
      <trkpt lat="43.00876" lon="1.15057">
        <ele>488.487183</ele>
        <time>2008-07-21T13:06:38Z</time>
      </trkpt>
      <trkpt lat="43.00897" lon="1.15087">
        <ele>484.641846</ele>
        <time>2008-07-21T13:07:04Z</time>
      </trkpt>
      <trkpt lat="43.00926" lon="1.15124">
        <ele>479.354492</ele>
        <time>2008-07-21T13:07:54Z</time>
      </trkpt>
      <trkpt lat="43.00966" lon="1.15145">
        <ele>478.393188</ele>
        <time>2008-07-21T13:08:23Z</time>
      </trkpt>
      <trkpt lat="43.00996" lon="1.15169">
        <ele>475.028687</ele>
        <time>2008-07-21T13:08:48Z</time>
      </trkpt>
      <trkpt lat="43.0103" lon="1.15201">
        <ele>471.66394</ele>
        <time>2008-07-21T13:09:16Z</time>
      </trkpt>
      <trkpt lat="43.01047" lon="1.15236">
        <ele>470.702637</ele>
        <time>2008-07-21T13:09:39Z</time>
      </trkpt>
      <trkpt lat="43.01057" lon="1.15265">
        <ele>470.702637</ele>
        <time>2008-07-21T13:10:00Z</time>
      </trkpt>
      <trkpt lat="43.0106" lon="1.15284">
        <ele>470.221924</ele>
        <time>2008-07-21T13:10:10Z</time>
      </trkpt>
      <trkpt lat="43.0106" lon="1.15294">
        <ele>470.702637</ele>
        <time>2008-07-21T13:10:16Z</time>
      </trkpt>
      <trkpt lat="43.01066" lon="1.15318">
        <ele>471.66394</ele>
        <time>2008-07-21T13:10:30Z</time>
      </trkpt>
      <trkpt lat="43.01092" lon="1.15387">
        <ele>474.547974</ele>
        <time>2008-07-21T13:11:11Z</time>
      </trkpt>
      <trkpt lat="43.01107" lon="1.15412">
        <ele>474.547974</ele>
        <time>2008-07-21T13:11:29Z</time>
      </trkpt>
      <trkpt lat="43.0111" lon="1.15414">
        <ele>473.58667</ele>
        <time>2008-07-21T13:11:43Z</time>
      </trkpt>
      <trkpt lat="43.01122" lon="1.15435">
        <ele>473.58667</ele>
        <time>2008-07-21T13:12:03Z</time>
      </trkpt>
      <trkpt lat="43.0114" lon="1.15458">
        <ele>471.18335</ele>
        <time>2008-07-21T13:12:23Z</time>
      </trkpt>
      <trkpt lat="43.0118" lon="1.15471">
        <ele>467.818726</ele>
        <time>2008-07-21T13:12:55Z</time>
      </trkpt>
      <trkpt lat="43.01192" lon="1.1547">
        <ele>466.857422</ele>
        <time>2008-07-21T13:13:06Z</time>
      </trkpt>
      <trkpt lat="43.01197" lon="1.15476">
        <ele>465.896118</ele>
        <time>2008-07-21T13:13:15Z</time>
      </trkpt>
      <trkpt lat="43.01186" lon="1.1549">
        <ele>465.896118</ele>
        <time>2008-07-21T13:13:37Z</time>
      </trkpt>
      <trkpt lat="43.01178" lon="1.15492">
        <ele>465.415527</ele>
        <time>2008-07-21T13:15:07Z</time>
      </trkpt>
      <trkpt lat="43.01168" lon="1.15497">
        <ele>464.454102</ele>
        <time>2008-07-21T13:15:31Z</time>
      </trkpt>
      <trkpt lat="43.01168" lon="1.15499">
        <ele>464.934814</ele>
        <time>2008-07-21T13:16:25Z</time>
      </trkpt>
      <trkpt lat="43.01151" lon="1.15501">
        <ele>462.050781</ele>
        <time>2008-07-21T13:16:47Z</time>
      </trkpt>
      <trkpt lat="43.01137" lon="1.15507">
        <ele>461.089478</ele>
        <time>2008-07-21T13:17:05Z</time>
      </trkpt>
      <trkpt lat="43.01095" lon="1.15526">
        <ele>456.282959</ele>
        <time>2008-07-21T13:17:37Z</time>
      </trkpt>
      <trkpt lat="43.01069" lon="1.15538">
        <ele>454.360229</ele>
        <time>2008-07-21T13:17:57Z</time>
      </trkpt>
      <trkpt lat="43.01044" lon="1.15551">
        <ele>451.476318</ele>
        <time>2008-07-21T13:18:16Z</time>
      </trkpt>
      <trkpt lat="43.01017" lon="1.15565">
        <ele>449.553711</ele>
        <time>2008-07-21T13:18:37Z</time>
      </trkpt>
      <trkpt lat="43.00988" lon="1.15586">
        <ele>448.592407</ele>
        <time>2008-07-21T13:19:00Z</time>
      </trkpt>
      <trkpt lat="43.00983" lon="1.15618">
        <ele>450.034424</ele>
        <time>2008-07-21T13:19:18Z</time>
      </trkpt>
      <trkpt lat="43.00981" lon="1.15622">
        <ele>451.476318</ele>
        <time>2008-07-21T13:19:36Z</time>
      </trkpt>
      <trkpt lat="43.00971" lon="1.1564">
        <ele>452.918213</ele>
        <time>2008-07-21T13:19:52Z</time>
      </trkpt>
      <trkpt lat="43.00963" lon="1.15654">
        <ele>454.84082</ele>
        <time>2008-07-21T13:20:06Z</time>
      </trkpt>
      <trkpt lat="43.00964" lon="1.15659">
        <ele>454.360229</ele>
        <time>2008-07-21T13:20:20Z</time>
      </trkpt>
      <trkpt lat="43.00966" lon="1.15646">
        <ele>453.398926</ele>
        <time>2008-07-21T13:20:31Z</time>
      </trkpt>
      <trkpt lat="43.00954" lon="1.15634">
        <ele>450.515015</ele>
        <time>2008-07-21T13:20:45Z</time>
      </trkpt>
      <trkpt lat="43.00937" lon="1.15632">
        <ele>448.592407</ele>
        <time>2008-07-21T13:21:04Z</time>
      </trkpt>
      <trkpt lat="43.00935" lon="1.15633">
        <ele>448.111816</ele>
        <time>2008-07-21T13:21:06Z</time>
      </trkpt>
      <trkpt lat="43.00906" lon="1.15656">
        <ele>446.189087</ele>
        <time>2008-07-21T13:21:28Z</time>
      </trkpt>
      <trkpt lat="43.00886" lon="1.15679">
        <ele>445.227661</ele>
        <time>2008-07-21T13:21:49Z</time>
      </trkpt>
      <trkpt lat="43.00876" lon="1.1571">
        <ele>444.266479</ele>
        <time>2008-07-21T13:22:13Z</time>
      </trkpt>
      <trkpt lat="43.00875" lon="1.15723">
        <ele>443.305054</ele>
        <time>2008-07-21T13:22:24Z</time>
      </trkpt>
      <trkpt lat="43.00874" lon="1.15724">
        <ele>443.305054</ele>
        <time>2008-07-21T13:22:26Z</time>
      </trkpt>
      <trkpt lat="43.00858" lon="1.15742">
        <ele>441.382446</ele>
        <time>2008-07-21T13:22:41Z</time>
      </trkpt>
      <trkpt lat="43.00831" lon="1.15765">
        <ele>441.863159</ele>
        <time>2008-07-21T13:23:00Z</time>
      </trkpt>
      <trkpt lat="43.00811" lon="1.15804">
        <ele>443.305054</ele>
        <time>2008-07-21T13:23:20Z</time>
      </trkpt>
      <trkpt lat="43.008" lon="1.15836">
        <ele>444.266479</ele>
        <time>2008-07-21T13:23:40Z</time>
      </trkpt>
      <trkpt lat="43.00788" lon="1.15864">
        <ele>444.266479</ele>
        <time>2008-07-21T13:23:55Z</time>
      </trkpt>
      <trkpt lat="43.00766" lon="1.15902">
        <ele>443.305054</ele>
        <time>2008-07-21T13:24:19Z</time>
      </trkpt>
      <trkpt lat="43.00758" lon="1.15927">
        <ele>443.785767</ele>
        <time>2008-07-21T13:24:42Z</time>
      </trkpt>
      <trkpt lat="43.00742" lon="1.15968">
        <ele>445.708374</ele>
        <time>2008-07-21T13:25:03Z</time>
      </trkpt>
      <trkpt lat="43.00738" lon="1.15992">
        <ele>445.708374</ele>
        <time>2008-07-21T13:25:19Z</time>
      </trkpt>
      <trkpt lat="43.00728" lon="1.16022">
        <ele>445.227661</ele>
        <time>2008-07-21T13:25:37Z</time>
      </trkpt>
      <trkpt lat="43.0071" lon="1.16076">
        <ele>447.150269</ele>
        <time>2008-07-21T13:26:11Z</time>
      </trkpt>
      <trkpt lat="43.0071" lon="1.16053">
        <ele>449.072998</ele>
        <time>2008-07-21T13:49:41Z</time>
      </trkpt>
      <trkpt lat="43.0072" lon="1.1604">
        <ele>448.592407</ele>
        <time>2008-07-21T13:49:52Z</time>
      </trkpt>
      <trkpt lat="43.00722" lon="1.16038">
        <ele>448.592407</ele>
        <time>2008-07-21T13:49:56Z</time>
      </trkpt>
      <trkpt lat="43.00722" lon="1.16032">
        <ele>448.111816</ele>
        <time>2008-07-21T13:49:59Z</time>
      </trkpt>
      <trkpt lat="43.00735" lon="1.16011">
        <ele>448.111816</ele>
        <time>2008-07-21T13:50:18Z</time>
      </trkpt>
      <trkpt lat="43.00743" lon="1.1599">
        <ele>450.034424</ele>
        <time>2008-07-21T13:50:32Z</time>
      </trkpt>
      <trkpt lat="43.00751" lon="1.15996">
        <ele>451.957031</ele>
        <time>2008-07-21T13:50:45Z</time>
      </trkpt>
      <trkpt lat="43.00754" lon="1.15998">
        <ele>452.918213</ele>
        <time>2008-07-21T13:50:47Z</time>
      </trkpt>
      <trkpt lat="43.00762" lon="1.16005">
        <ele>454.84082</ele>
        <time>2008-07-21T13:50:57Z</time>
      </trkpt>
      <trkpt lat="43.00807" lon="1.16045">
        <ele>462.050781</ele>
        <time>2008-07-21T13:51:51Z</time>
      </trkpt>
      <trkpt lat="43.00818" lon="1.16054">
        <ele>464.934814</ele>
        <time>2008-07-21T13:52:08Z</time>
      </trkpt>
      <trkpt lat="43.00847" lon="1.16086">
        <ele>467.818726</ele>
        <time>2008-07-21T13:52:37Z</time>
      </trkpt>
      <trkpt lat="43.00856" lon="1.16092">
        <ele>468.299316</ele>
        <time>2008-07-21T13:52:44Z</time>
      </trkpt>
      <trkpt lat="43.0089" lon="1.16111">
        <ele>469.741333</ele>
        <time>2008-07-21T13:53:09Z</time>
      </trkpt>
      <trkpt lat="43.00908" lon="1.16118">
        <ele>470.221924</ele>
        <time>2008-07-21T13:53:24Z</time>
      </trkpt>
      <trkpt lat="43.00928" lon="1.16118">
        <ele>473.106079</ele>
        <time>2008-07-21T13:53:42Z</time>
      </trkpt>
      <trkpt lat="43.00946" lon="1.16136">
        <ele>475.509277</ele>
        <time>2008-07-21T13:54:00Z</time>
      </trkpt>
      <trkpt lat="43.00954" lon="1.16143">
        <ele>476.470581</ele>
        <time>2008-07-21T13:54:08Z</time>
      </trkpt>
      <trkpt lat="43.00968" lon="1.16152">
        <ele>478.873901</ele>
        <time>2008-07-21T13:54:24Z</time>
      </trkpt>
      <trkpt lat="43.00969" lon="1.16153">
        <ele>478.873901</ele>
        <time>2008-07-21T13:54:25Z</time>
      </trkpt>
      <trkpt lat="43.0097" lon="1.16153">
        <ele>479.354492</ele>
        <time>2008-07-21T13:54:26Z</time>
      </trkpt>
      <trkpt lat="43.00984" lon="1.16167">
        <ele>482.238525</ele>
        <time>2008-07-21T13:54:48Z</time>
      </trkpt>
      <trkpt lat="43.00996" lon="1.16184">
        <ele>484.161133</ele>
        <time>2008-07-21T13:55:09Z</time>
      </trkpt>
      <trkpt lat="43.01014" lon="1.16199">
        <ele>487.525635</ele>
        <time>2008-07-21T13:55:26Z</time>
      </trkpt>
      <trkpt lat="43.01023" lon="1.16211">
        <ele>490.890381</ele>
        <time>2008-07-21T13:55:45Z</time>
      </trkpt>
      <trkpt lat="43.01025" lon="1.16213">
        <ele>491.370972</ele>
        <time>2008-07-21T13:55:48Z</time>
      </trkpt>
      <trkpt lat="43.01039" lon="1.16221">
        <ele>492.812988</ele>
        <time>2008-07-21T13:56:07Z</time>
      </trkpt>
      <trkpt lat="43.01048" lon="1.16228">
        <ele>495.216187</ele>
        <time>2008-07-21T13:56:19Z</time>
      </trkpt>
      <trkpt lat="43.01055" lon="1.16233">
        <ele>498.100342</ele>
        <time>2008-07-21T13:56:33Z</time>
      </trkpt>
      <trkpt lat="43.01065" lon="1.16253">
        <ele>504.348877</ele>
        <time>2008-07-21T13:57:07Z</time>
      </trkpt>
      <trkpt lat="43.01067" lon="1.16269">
        <ele>505.790894</ele>
        <time>2008-07-21T13:57:29Z</time>
      </trkpt>
      <trkpt lat="43.01077" lon="1.16266">
        <ele>508.674683</ele>
        <time>2008-07-21T13:57:45Z</time>
      </trkpt>
      <trkpt lat="43.01082" lon="1.16265">
        <ele>511.078003</ele>
        <time>2008-07-21T13:57:55Z</time>
      </trkpt>
      <trkpt lat="43.0108" lon="1.1628">
        <ele>513.000732</ele>
        <time>2008-07-21T13:58:09Z</time>
      </trkpt>
      <trkpt lat="43.0108" lon="1.16282">
        <ele>513.481445</ele>
        <time>2008-07-21T13:58:11Z</time>
      </trkpt>
      <trkpt lat="43.01081" lon="1.16297">
        <ele>514.92334</ele>
        <time>2008-07-21T13:58:24Z</time>
      </trkpt>
      <trkpt lat="43.01078" lon="1.1631">
        <ele>516.845947</ele>
        <time>2008-07-21T13:58:38Z</time>
      </trkpt>
      <trkpt lat="43.01081" lon="1.16311">
        <ele>516.845947</ele>
        <time>2008-07-21T13:59:34Z</time>
      </trkpt>
      <trkpt lat="43.0108" lon="1.16311">
        <ele>516.365234</ele>
        <time>2008-07-21T14:00:13Z</time>
      </trkpt>
      <trkpt lat="43.01079" lon="1.1631">
        <ele>517.32666</ele>
        <time>2008-07-21T14:01:32Z</time>
      </trkpt>
      <trkpt lat="43.01074" lon="1.1631">
        <ele>517.32666</ele>
        <time>2008-07-21T14:02:24Z</time>
      </trkpt>
      <trkpt lat="43.01073" lon="1.1631">
        <ele>516.845947</ele>
        <time>2008-07-21T14:03:11Z</time>
      </trkpt>
      <trkpt lat="43.01077" lon="1.16311">
        <ele>515.404053</ele>
        <time>2008-07-21T14:04:09Z</time>
      </trkpt>
      <trkpt lat="43.01081" lon="1.1631">
        <ele>513.962036</ele>
        <time>2008-07-21T14:04:45Z</time>
      </trkpt>
      <trkpt lat="43.01082" lon="1.16317">
        <ele>516.845947</ele>
        <time>2008-07-21T14:05:01Z</time>
      </trkpt>
      <trkpt lat="43.01079" lon="1.1634">
        <ele>519.729858</ele>
        <time>2008-07-21T14:05:26Z</time>
      </trkpt>
      <trkpt lat="43.01077" lon="1.16351">
        <ele>521.171997</ele>
        <time>2008-07-21T14:05:43Z</time>
      </trkpt>
      <trkpt lat="43.01077" lon="1.16364">
        <ele>522.133179</ele>
        <time>2008-07-21T14:06:11Z</time>
      </trkpt>
      <trkpt lat="43.01075" lon="1.16371">
        <ele>523.094604</ele>
        <time>2008-07-21T14:06:32Z</time>
      </trkpt>
      <trkpt lat="43.01076" lon="1.16384">
        <ele>525.017212</ele>
        <time>2008-07-21T14:06:44Z</time>
      </trkpt>
      <trkpt lat="43.01075" lon="1.16387">
        <ele>526.459106</ele>
        <time>2008-07-21T14:06:59Z</time>
      </trkpt>
      <trkpt lat="43.01077" lon="1.16403">
        <ele>529.34314</ele>
        <time>2008-07-21T14:07:15Z</time>
      </trkpt>
      <trkpt lat="43.01076" lon="1.16425">
        <ele>532.227051</ele>
        <time>2008-07-21T14:07:37Z</time>
      </trkpt>
      <trkpt lat="43.01075" lon="1.16446">
        <ele>535.110962</ele>
        <time>2008-07-21T14:07:56Z</time>
      </trkpt>
      <trkpt lat="43.01072" lon="1.16466">
        <ele>537.514282</ele>
        <time>2008-07-21T14:08:12Z</time>
      </trkpt>
      <trkpt lat="43.0107" lon="1.16483">
        <ele>539.43689</ele>
        <time>2008-07-21T14:08:25Z</time>
      </trkpt>
      <trkpt lat="43.01066" lon="1.16508">
        <ele>542.320923</ele>
        <time>2008-07-21T14:08:44Z</time>
      </trkpt>
      <trkpt lat="43.01064" lon="1.16521">
        <ele>544.243652</ele>
        <time>2008-07-21T14:08:58Z</time>
      </trkpt>
      <trkpt lat="43.01062" lon="1.16532">
        <ele>545.685547</ele>
        <time>2008-07-21T14:09:15Z</time>
      </trkpt>
      <trkpt lat="43.01057" lon="1.16553">
        <ele>549.050049</ele>
        <time>2008-07-21T14:09:33Z</time>
      </trkpt>
      <trkpt lat="43.01057" lon="1.16565">
        <ele>550.011475</ele>
        <time>2008-07-21T14:09:47Z</time>
      </trkpt>
      <trkpt lat="43.01051" lon="1.16573">
        <ele>551.934082</ele>
        <time>2008-07-21T14:09:53Z</time>
      </trkpt>
      <trkpt lat="43.01048" lon="1.166">
        <ele>554.337402</ele>
        <time>2008-07-21T14:10:17Z</time>
      </trkpt>
      <trkpt lat="43.01059" lon="1.16595">
        <ele>555.779297</ele>
        <time>2008-07-21T14:10:30Z</time>
      </trkpt>
      <trkpt lat="43.01066" lon="1.1659">
        <ele>559.624756</ele>
        <time>2008-07-21T14:10:38Z</time>
      </trkpt>
      <trkpt lat="43.01076" lon="1.16589">
        <ele>562.028076</ele>
        <time>2008-07-21T14:10:52Z</time>
      </trkpt>
      <trkpt lat="43.01082" lon="1.16592">
        <ele>562.989258</ele>
        <time>2008-07-21T14:11:05Z</time>
      </trkpt>
      <trkpt lat="43.01087" lon="1.16597">
        <ele>565.392578</ele>
        <time>2008-07-21T14:11:18Z</time>
      </trkpt>
      <trkpt lat="43.01097" lon="1.16592">
        <ele>567.795654</ele>
        <time>2008-07-21T14:11:36Z</time>
      </trkpt>
      <trkpt lat="43.01102" lon="1.16588">
        <ele>568.75708</ele>
        <time>2008-07-21T14:11:44Z</time>
      </trkpt>
      <trkpt lat="43.01111" lon="1.16582">
        <ele>572.602539</ele>
        <time>2008-07-21T14:11:59Z</time>
      </trkpt>
      <trkpt lat="43.01119" lon="1.16571">
        <ele>575.486328</ele>
        <time>2008-07-21T14:12:13Z</time>
      </trkpt>
      <trkpt lat="43.0113" lon="1.16567">
        <ele>578.851074</ele>
        <time>2008-07-21T14:12:30Z</time>
      </trkpt>
      <trkpt lat="43.01138" lon="1.16557">
        <ele>580.773682</ele>
        <time>2008-07-21T14:12:48Z</time>
      </trkpt>
      <trkpt lat="43.01147" lon="1.16553">
        <ele>584.138184</ele>
        <time>2008-07-21T14:13:05Z</time>
      </trkpt>
      <trkpt lat="43.01154" lon="1.16547">
        <ele>586.541504</ele>
        <time>2008-07-21T14:13:22Z</time>
      </trkpt>
      <trkpt lat="43.01162" lon="1.16542">
        <ele>589.90625</ele>
        <time>2008-07-21T14:13:41Z</time>
      </trkpt>
      <trkpt lat="43.01168" lon="1.16542">
        <ele>592.790283</ele>
        <time>2008-07-21T14:13:55Z</time>
      </trkpt>
      <trkpt lat="43.01172" lon="1.16534">
        <ele>594.232178</ele>
        <time>2008-07-21T14:14:10Z</time>
      </trkpt>
      <trkpt lat="43.01181" lon="1.16544">
        <ele>597.115967</ele>
        <time>2008-07-21T14:14:25Z</time>
      </trkpt>
      <trkpt lat="43.0118" lon="1.16546">
        <ele>599.038574</ele>
        <time>2008-07-21T14:14:30Z</time>
      </trkpt>
      <trkpt lat="43.01184" lon="1.16552">
        <ele>600.480713</ele>
        <time>2008-07-21T14:14:49Z</time>
      </trkpt>
      <trkpt lat="43.01189" lon="1.16554">
        <ele>603.845215</ele>
        <time>2008-07-21T14:15:05Z</time>
      </trkpt>
      <trkpt lat="43.01191" lon="1.1655">
        <ele>605.287354</ele>
        <time>2008-07-21T14:15:11Z</time>
      </trkpt>
      <trkpt lat="43.01197" lon="1.16544">
        <ele>606.729248</ele>
        <time>2008-07-21T14:15:28Z</time>
      </trkpt>
      <trkpt lat="43.01206" lon="1.16533">
        <ele>610.09375</ele>
        <time>2008-07-21T14:15:44Z</time>
      </trkpt>
      <trkpt lat="43.01217" lon="1.16529">
        <ele>613.458496</ele>
        <time>2008-07-21T14:16:03Z</time>
      </trkpt>
      <trkpt lat="43.01225" lon="1.16525">
        <ele>616.342285</ele>
        <time>2008-07-21T14:16:19Z</time>
      </trkpt>
      <trkpt lat="43.01234" lon="1.16518">
        <ele>618.264893</ele>
        <time>2008-07-21T14:16:35Z</time>
      </trkpt>
      <trkpt lat="43.01245" lon="1.16513">
        <ele>621.629639</ele>
        <time>2008-07-21T14:16:56Z</time>
      </trkpt>
      <trkpt lat="43.01249" lon="1.16511">
        <ele>623.071777</ele>
        <time>2008-07-21T14:17:09Z</time>
      </trkpt>
      <trkpt lat="43.01255" lon="1.16511">
        <ele>624.032959</ele>
        <time>2008-07-21T14:17:22Z</time>
      </trkpt>
      <trkpt lat="43.01264" lon="1.16508">
        <ele>625.955566</ele>
        <time>2008-07-21T14:17:39Z</time>
      </trkpt>
      <trkpt lat="43.01275" lon="1.16505">
        <ele>628.8396</ele>
        <time>2008-07-21T14:17:57Z</time>
      </trkpt>
      <trkpt lat="43.01283" lon="1.16503">
        <ele>632.204102</ele>
        <time>2008-07-21T14:18:11Z</time>
      </trkpt>
      <trkpt lat="43.0129" lon="1.16507">
        <ele>635.088135</ele>
        <time>2008-07-21T14:18:25Z</time>
      </trkpt>
      <trkpt lat="43.01296" lon="1.16514">
        <ele>637.972168</ele>
        <time>2008-07-21T14:18:48Z</time>
      </trkpt>
      <trkpt lat="43.01306" lon="1.16517">
        <ele>641.33667</ele>
        <time>2008-07-21T14:19:06Z</time>
      </trkpt>
      <trkpt lat="43.01314" lon="1.16519">
        <ele>644.701172</ele>
        <time>2008-07-21T14:19:24Z</time>
      </trkpt>
      <trkpt lat="43.01318" lon="1.16525">
        <ele>647.104492</ele>
        <time>2008-07-21T14:19:40Z</time>
      </trkpt>
      <trkpt lat="43.01324" lon="1.1653">
        <ele>650.469238</ele>
        <time>2008-07-21T14:19:57Z</time>
      </trkpt>
      <trkpt lat="43.01326" lon="1.16531">
        <ele>651.43042</ele>
        <time>2008-07-21T14:20:00Z</time>
      </trkpt>
      <trkpt lat="43.01332" lon="1.16537">
        <ele>654.314697</ele>
        <time>2008-07-21T14:20:15Z</time>
      </trkpt>
      <trkpt lat="43.01338" lon="1.16544">
        <ele>656.237061</ele>
        <time>2008-07-21T14:20:31Z</time>
      </trkpt>
      <trkpt lat="43.0134" lon="1.16553">
        <ele>659.121094</ele>
        <time>2008-07-21T14:20:48Z</time>
      </trkpt>
      <trkpt lat="43.01344" lon="1.16562">
        <ele>661.524414</ele>
        <time>2008-07-21T14:21:06Z</time>
      </trkpt>
      <trkpt lat="43.01349" lon="1.16568">
        <ele>662.966309</ele>
        <time>2008-07-21T14:21:18Z</time>
      </trkpt>
      <trkpt lat="43.01354" lon="1.1658">
        <ele>666.330811</ele>
        <time>2008-07-21T14:21:36Z</time>
      </trkpt>
      <trkpt lat="43.0136" lon="1.16591">
        <ele>667.772705</ele>
        <time>2008-07-21T14:21:52Z</time>
      </trkpt>
      <trkpt lat="43.01364" lon="1.16592">
        <ele>669.695801</ele>
        <time>2008-07-21T14:22:09Z</time>
      </trkpt>
      <trkpt lat="43.01365" lon="1.16602">
        <ele>670.656982</ele>
        <time>2008-07-21T14:22:23Z</time>
      </trkpt>
      <trkpt lat="43.01363" lon="1.16602">
        <ele>670.17627</ele>
        <time>2008-07-21T14:22:48Z</time>
      </trkpt>
      <trkpt lat="43.01365" lon="1.16602">
        <ele>671.618164</ele>
        <time>2008-07-21T14:23:23Z</time>
      </trkpt>
      <trkpt lat="43.01364" lon="1.16601">
        <ele>671.137695</ele>
        <time>2008-07-21T14:23:51Z</time>
      </trkpt>
      <trkpt lat="43.01365" lon="1.16601">
        <ele>672.57959</ele>
        <time>2008-07-21T14:24:21Z</time>
      </trkpt>
      <trkpt lat="43.01365" lon="1.16603">
        <ele>671.137695</ele>
        <time>2008-07-21T14:25:43Z</time>
      </trkpt>
      <trkpt lat="43.01364" lon="1.16603">
        <ele>672.57959</ele>
        <time>2008-07-21T14:27:16Z</time>
      </trkpt>
      <trkpt lat="43.01364" lon="1.16601">
        <ele>672.098877</ele>
        <time>2008-07-21T14:27:46Z</time>
      </trkpt>
      <trkpt lat="43.01364" lon="1.16603">
        <ele>672.57959</ele>
        <time>2008-07-21T14:28:38Z</time>
      </trkpt>
      <trkpt lat="43.01364" lon="1.16603">
        <ele>672.57959</ele>
        <time>2008-07-21T14:29:37Z</time>
      </trkpt>
      <trkpt lat="43.01365" lon="1.16604">
        <ele>673.060303</ele>
        <time>2008-07-21T14:30:08Z</time>
      </trkpt>
      <trkpt lat="43.01365" lon="1.16602">
        <ele>672.57959</ele>
        <time>2008-07-21T14:30:38Z</time>
      </trkpt>
      <trkpt lat="43.01365" lon="1.16603">
        <ele>672.57959</ele>
        <time>2008-07-21T14:31:02Z</time>
      </trkpt>
      <trkpt lat="43.01365" lon="1.16603">
        <ele>672.57959</ele>
        <time>2008-07-21T14:31:36Z</time>
      </trkpt>
      <trkpt lat="43.0136" lon="1.16612">
        <ele>672.098877</ele>
        <time>2008-07-21T14:31:49Z</time>
      </trkpt>
      <trkpt lat="43.0135" lon="1.16617">
        <ele>669.215088</ele>
        <time>2008-07-21T14:32:09Z</time>
      </trkpt>
      <trkpt lat="43.01343" lon="1.16621">
        <ele>667.772705</ele>
        <time>2008-07-21T14:32:18Z</time>
      </trkpt>
      <trkpt lat="43.01337" lon="1.1663">
        <ele>665.850342</ele>
        <time>2008-07-21T14:32:34Z</time>
      </trkpt>
      <trkpt lat="43.01338" lon="1.16633">
        <ele>664.408203</ele>
        <time>2008-07-21T14:32:36Z</time>
      </trkpt>
      <trkpt lat="43.01343" lon="1.16648">
        <ele>661.524414</ele>
        <time>2008-07-21T14:32:49Z</time>
      </trkpt>
      <trkpt lat="43.01342" lon="1.16662">
        <ele>660.562988</ele>
        <time>2008-07-21T14:33:04Z</time>
      </trkpt>
      <trkpt lat="43.01343" lon="1.16664">
        <ele>660.562988</ele>
        <time>2008-07-21T14:33:06Z</time>
      </trkpt>
      <trkpt lat="43.01342" lon="1.16701">
        <ele>659.601807</ele>
        <time>2008-07-21T14:33:28Z</time>
      </trkpt>
      <trkpt lat="43.01333" lon="1.16719">
        <ele>656.237061</ele>
        <time>2008-07-21T14:33:42Z</time>
      </trkpt>
      <trkpt lat="43.01318" lon="1.16749">
        <ele>654.795166</ele>
        <time>2008-07-21T14:34:02Z</time>
      </trkpt>
      <trkpt lat="43.01305" lon="1.16761">
        <ele>653.353271</ele>
        <time>2008-07-21T14:34:15Z</time>
      </trkpt>
      <trkpt lat="43.01306" lon="1.16765">
        <ele>652.872559</ele>
        <time>2008-07-21T14:34:19Z</time>
      </trkpt>
      <trkpt lat="43.01293" lon="1.1677">
        <ele>649.988525</ele>
        <time>2008-07-21T14:34:31Z</time>
      </trkpt>
      <trkpt lat="43.01279" lon="1.1678">
        <ele>646.624023</ele>
        <time>2008-07-21T14:34:45Z</time>
      </trkpt>
      <trkpt lat="43.01264" lon="1.1679">
        <ele>643.73999</ele>
        <time>2008-07-21T14:35:01Z</time>
      </trkpt>
      <trkpt lat="43.0126" lon="1.16793">
        <ele>643.259277</ele>
        <time>2008-07-21T14:35:05Z</time>
      </trkpt>
      <trkpt lat="43.01247" lon="1.16809">
        <ele>639.414063</ele>
        <time>2008-07-21T14:35:21Z</time>
      </trkpt>
      <trkpt lat="43.01219" lon="1.16824">
        <ele>633.645996</ele>
        <time>2008-07-21T14:35:53Z</time>
      </trkpt>
      <trkpt lat="43.01208" lon="1.16834">
        <ele>626.916992</ele>
        <time>2008-07-21T14:36:14Z</time>
      </trkpt>
      <trkpt lat="43.0118" lon="1.16837">
        <ele>620.668457</ele>
        <time>2008-07-21T14:36:51Z</time>
      </trkpt>
      <trkpt lat="43.01234" lon="1.16979">
        <ele>600.480713</ele>
        <time>2008-07-21T14:43:31Z</time>
      </trkpt>
      <trkpt lat="43.01239" lon="1.1699">
        <ele>589.425537</ele>
        <time>2008-07-21T14:47:14Z</time>
      </trkpt>
      <trkpt lat="43.01255" lon="1.16998">
        <ele>581.734863</ele>
        <time>2008-07-21T14:49:56Z</time>
      </trkpt>
      <trkpt lat="43.01242" lon="1.17044">
        <ele>573.083252</ele>
        <time>2008-07-21T14:51:06Z</time>
      </trkpt>
      <trkpt lat="43.01141" lon="1.17131">
        <ele>562.989258</ele>
        <time>2008-07-21T14:54:07Z</time>
      </trkpt>
      <trkpt lat="43.01086" lon="1.17155">
        <ele>553.856689</ele>
        <time>2008-07-21T14:55:11Z</time>
      </trkpt>
      <trkpt lat="43.01084" lon="1.17158">
        <ele>552.895264</ele>
        <time>2008-07-21T14:55:13Z</time>
      </trkpt>
      <trkpt lat="43.01061" lon="1.17163">
        <ele>550.492188</ele>
        <time>2008-07-21T14:55:34Z</time>
      </trkpt>
      <trkpt lat="43.01038" lon="1.17178">
        <ele>547.608154</ele>
        <time>2008-07-21T14:55:51Z</time>
      </trkpt>
      <trkpt lat="43.01035" lon="1.17182">
        <ele>547.608154</ele>
        <time>2008-07-21T14:55:54Z</time>
      </trkpt>
      <trkpt lat="43.01005" lon="1.17198">
        <ele>546.646851</ele>
        <time>2008-07-21T14:56:35Z</time>
      </trkpt>
      <trkpt lat="43.01005" lon="1.17197">
        <ele>544.724243</ele>
        <time>2008-07-21T14:56:45Z</time>
      </trkpt>
      <trkpt lat="43.01002" lon="1.17203">
        <ele>544.724243</ele>
        <time>2008-07-21T14:57:15Z</time>
      </trkpt>
      <trkpt lat="43.00993" lon="1.1721">
        <ele>540.878906</ele>
        <time>2008-07-21T14:57:50Z</time>
      </trkpt>
      <trkpt lat="43.00967" lon="1.17214">
        <ele>537.514282</ele>
        <time>2008-07-21T14:58:15Z</time>
      </trkpt>
      <trkpt lat="43.00946" lon="1.17191">
        <ele>534.630371</ele>
        <time>2008-07-21T14:58:33Z</time>
      </trkpt>
      <trkpt lat="43.00934" lon="1.17177">
        <ele>526.939819</ele>
        <time>2008-07-21T14:59:28Z</time>
      </trkpt>
      <trkpt lat="43.00885" lon="1.17184">
        <ele>520.210571</ele>
        <time>2008-07-21T15:00:19Z</time>
      </trkpt>
      <trkpt lat="43.00861" lon="1.17206">
        <ele>513.962036</ele>
        <time>2008-07-21T15:01:00Z</time>
      </trkpt>
      <trkpt lat="43.00842" lon="1.17238">
        <ele>512.52002</ele>
        <time>2008-07-21T15:01:25Z</time>
      </trkpt>
      <trkpt lat="43.00815" lon="1.17424">
        <ele>503.387451</ele>
        <time>2008-07-21T15:02:52Z</time>
      </trkpt>
      <trkpt lat="43.00815" lon="1.17433">
        <ele>499.542236</ele>
        <time>2008-07-21T15:03:13Z</time>
      </trkpt>
      <trkpt lat="43.00803" lon="1.17444">
        <ele>498.100342</ele>
        <time>2008-07-21T15:03:35Z</time>
      </trkpt>
      <trkpt lat="43.00794" lon="1.17442">
        <ele>497.138916</ele>
        <time>2008-07-21T15:03:44Z</time>
      </trkpt>
      <trkpt lat="43.00767" lon="1.17432">
        <ele>493.774292</ele>
        <time>2008-07-21T15:04:05Z</time>
      </trkpt>
      <trkpt lat="43.00742" lon="1.17425">
        <ele>492.812988</ele>
        <time>2008-07-21T15:04:31Z</time>
      </trkpt>
      <trkpt lat="43.00719" lon="1.17427">
        <ele>491.851685</ele>
        <time>2008-07-21T15:04:55Z</time>
      </trkpt>
      <trkpt lat="43.00708" lon="1.17431">
        <ele>490.890381</ele>
        <time>2008-07-21T15:05:06Z</time>
      </trkpt>
      <trkpt lat="43.00684" lon="1.17436">
        <ele>488.00647</ele>
        <time>2008-07-21T15:05:28Z</time>
      </trkpt>
      <trkpt lat="43.00599" lon="1.1744">
        <ele>482.719238</ele>
        <time>2008-07-21T15:06:29Z</time>
      </trkpt>
      <trkpt lat="43.00572" lon="1.17427">
        <ele>481.757813</ele>
        <time>2008-07-21T15:06:50Z</time>
      </trkpt>
      <trkpt lat="43.00536" lon="1.17407">
        <ele>484.161133</ele>
        <time>2008-07-21T15:07:25Z</time>
      </trkpt>
      <trkpt lat="43.00517" lon="1.17398">
        <ele>484.641846</ele>
        <time>2008-07-21T15:07:45Z</time>
      </trkpt>
      <trkpt lat="43.00511" lon="1.17393">
        <ele>484.161133</ele>
        <time>2008-07-21T15:07:51Z</time>
      </trkpt>
      <trkpt lat="43.00503" lon="1.17393">
        <ele>483.68042</ele>
        <time>2008-07-21T15:07:58Z</time>
      </trkpt>
      <trkpt lat="43.00475" lon="1.17393">
        <ele>481.757813</ele>
        <time>2008-07-21T15:08:21Z</time>
      </trkpt>
      <trkpt lat="43.00456" lon="1.17393">
        <ele>480.796631</ele>
        <time>2008-07-21T15:08:37Z</time>
      </trkpt>
      <trkpt lat="43.00453" lon="1.17393">
        <ele>480.315918</ele>
        <time>2008-07-21T15:08:40Z</time>
      </trkpt>
      <trkpt lat="43.0045" lon="1.174">
        <ele>479.835083</ele>
        <time>2008-07-21T15:08:43Z</time>
      </trkpt>
      <trkpt lat="43.00447" lon="1.17406">
        <ele>479.835083</ele>
        <time>2008-07-21T15:08:46Z</time>
      </trkpt>
      <trkpt lat="43.00442" lon="1.17405">
        <ele>480.315918</ele>
        <time>2008-07-21T15:08:50Z</time>
      </trkpt>
      <trkpt lat="43.00436" lon="1.17405">
        <ele>479.835083</ele>
        <time>2008-07-21T15:08:54Z</time>
      </trkpt>
      <trkpt lat="43.00368" lon="1.17353">
        <ele>473.106079</ele>
        <time>2008-07-21T15:10:08Z</time>
      </trkpt>
      <trkpt lat="43.00362" lon="1.17349">
        <ele>472.625366</ele>
        <time>2008-07-21T15:10:27Z</time>
      </trkpt>
      <trkpt lat="43.00354" lon="1.17345">
        <ele>472.144653</ele>
        <time>2008-07-21T15:10:37Z</time>
      </trkpt>
      <trkpt lat="43.00299" lon="1.17301">
        <ele>467.338135</ele>
        <time>2008-07-21T15:11:30Z</time>
      </trkpt>
      <trkpt lat="43.00282" lon="1.17286">
        <ele>465.415527</ele>
        <time>2008-07-21T15:11:49Z</time>
      </trkpt>
      <trkpt lat="43.00273" lon="1.17277">
        <ele>467.338135</ele>
        <time>2008-07-21T15:12:02Z</time>
      </trkpt>
      <trkpt lat="43.00248" lon="1.17254">
        <ele>465.896118</ele>
        <time>2008-07-21T15:12:25Z</time>
      </trkpt>
      <trkpt lat="43.00223" lon="1.17232">
        <ele>464.934814</ele>
        <time>2008-07-21T15:12:45Z</time>
      </trkpt>
      <trkpt lat="43.00182" lon="1.172">
        <ele>464.934814</ele>
        <time>2008-07-21T15:13:22Z</time>
      </trkpt>
      <trkpt lat="43.00164" lon="1.17185">
        <ele>466.857422</ele>
        <time>2008-07-21T15:13:40Z</time>
      </trkpt>
      <trkpt lat="43.00142" lon="1.17171">
        <ele>467.338135</ele>
        <time>2008-07-21T15:14:01Z</time>
      </trkpt>
      <trkpt lat="43.00119" lon="1.17152">
        <ele>465.896118</ele>
        <time>2008-07-21T15:14:23Z</time>
      </trkpt>
      <trkpt lat="43.00093" lon="1.17127">
        <ele>463.973389</ele>
        <time>2008-07-21T15:14:46Z</time>
      </trkpt>
      <trkpt lat="43.00073" lon="1.17104">
        <ele>463.973389</ele>
        <time>2008-07-21T15:15:07Z</time>
      </trkpt>
      <trkpt lat="43.00049" lon="1.17091">
        <ele>464.454102</ele>
        <time>2008-07-21T15:15:33Z</time>
      </trkpt>
      <trkpt lat="43.00037" lon="1.17086">
        <ele>465.415527</ele>
        <time>2008-07-21T15:15:45Z</time>
      </trkpt>
      <trkpt lat="43.00006" lon="1.17065">
        <ele>463.973389</ele>
        <time>2008-07-21T15:16:10Z</time>
      </trkpt>
      <trkpt lat="42.99969" lon="1.17046">
        <ele>461.089478</ele>
        <time>2008-07-21T15:16:38Z</time>
      </trkpt>
      <trkpt lat="42.99947" lon="1.17036">
        <ele>460.608765</ele>
        <time>2008-07-21T15:16:55Z</time>
      </trkpt>
      <trkpt lat="42.99921" lon="1.17026">
        <ele>457.724976</ele>
        <time>2008-07-21T15:17:15Z</time>
      </trkpt>
      <trkpt lat="42.99903" lon="1.17015">
        <ele>456.76355</ele>
        <time>2008-07-21T15:17:33Z</time>
      </trkpt>
      <trkpt lat="42.99868" lon="1.16997">
        <ele>455.321533</ele>
        <time>2008-07-21T15:17:57Z</time>
      </trkpt>
      <trkpt lat="42.99868" lon="1.16995">
        <ele>455.802246</ele>
        <time>2008-07-21T15:17:59Z</time>
      </trkpt>
      <trkpt lat="42.99876" lon="1.16993">
        <ele>454.84082</ele>
        <time>2008-07-21T15:18:06Z</time>
      </trkpt>
      <trkpt lat="42.99883" lon="1.16958">
        <ele>453.879639</ele>
        <time>2008-07-21T15:18:24Z</time>
      </trkpt>
      <trkpt lat="42.99892" lon="1.16915">
        <ele>452.437622</ele>
        <time>2008-07-21T15:18:45Z</time>
      </trkpt>
      <trkpt lat="42.99893" lon="1.16911">
        <ele>451.476318</ele>
        <time>2008-07-21T15:18:48Z</time>
      </trkpt>
      <trkpt lat="42.99899" lon="1.16876">
        <ele>450.034424</ele>
        <time>2008-07-21T15:19:05Z</time>
      </trkpt>
      <trkpt lat="42.99905" lon="1.1686">
        <ele>448.111816</ele>
        <time>2008-07-21T15:19:15Z</time>
      </trkpt>
      <trkpt lat="42.99914" lon="1.16845">
        <ele>446.189087</ele>
        <time>2008-07-21T15:19:34Z</time>
      </trkpt>
      <trkpt lat="42.99915" lon="1.16835">
        <ele>444.74707</ele>
        <time>2008-07-21T15:19:40Z</time>
      </trkpt>
      <trkpt lat="42.99913" lon="1.16824">
        <ele>443.785767</ele>
        <time>2008-07-21T15:19:46Z</time>
      </trkpt>
      <trkpt lat="42.99919" lon="1.16813">
        <ele>442.824463</ele>
        <time>2008-07-21T15:20:04Z</time>
      </trkpt>
      <trkpt lat="42.9992" lon="1.16807">
        <ele>441.863159</ele>
        <time>2008-07-21T15:20:08Z</time>
      </trkpt>
      <trkpt lat="42.99926" lon="1.1679">
        <ele>441.382446</ele>
        <time>2008-07-21T15:20:26Z</time>
      </trkpt>
      <trkpt lat="42.99931" lon="1.16766">
        <ele>439.459717</ele>
        <time>2008-07-21T15:20:44Z</time>
      </trkpt>
      <trkpt lat="42.99938" lon="1.1673">
        <ele>438.017822</ele>
        <time>2008-07-21T15:21:01Z</time>
      </trkpt>
      <trkpt lat="42.99941" lon="1.16728">
        <ele>437.537109</ele>
        <time>2008-07-21T15:21:05Z</time>
      </trkpt>
      <trkpt lat="42.99947" lon="1.16712">
        <ele>435.614502</ele>
        <time>2008-07-21T15:21:18Z</time>
      </trkpt>
      <trkpt lat="42.99942" lon="1.16668">
        <ele>432.730713</ele>
        <time>2008-07-21T15:21:40Z</time>
      </trkpt>
      <trkpt lat="42.9994" lon="1.16642">
        <ele>429.846558</ele>
        <time>2008-07-21T15:21:57Z</time>
      </trkpt>
      <trkpt lat="42.99944" lon="1.16599">
        <ele>428.404663</ele>
        <time>2008-07-21T15:22:22Z</time>
      </trkpt>
      <trkpt lat="42.99946" lon="1.16568">
        <ele>425.520752</ele>
        <time>2008-07-21T15:22:43Z</time>
      </trkpt>
      <trkpt lat="42.99964" lon="1.16528">
        <ele>425.040161</ele>
        <time>2008-07-21T15:23:22Z</time>
      </trkpt>
      <trkpt lat="42.99966" lon="1.16519">
        <ele>425.520752</ele>
        <time>2008-07-21T15:23:31Z</time>
      </trkpt>
      <trkpt lat="42.99971" lon="1.16518">
        <ele>426.001343</ele>
        <time>2008-07-21T15:23:34Z</time>
      </trkpt>
      <trkpt lat="42.99969" lon="1.16504">
        <ele>426.962769</ele>
        <time>2008-07-21T15:23:43Z</time>
      </trkpt>
      <trkpt lat="42.99967" lon="1.165">
        <ele>426.962769</ele>
        <time>2008-07-21T15:23:48Z</time>
      </trkpt>
      <trkpt lat="42.99961" lon="1.16445">
        <ele>428.885376</ele>
        <time>2008-07-21T15:24:15Z</time>
      </trkpt>
      <trkpt lat="42.99975" lon="1.16399">
        <ele>432.730713</ele>
        <time>2008-07-21T15:24:50Z</time>
      </trkpt>
      <trkpt lat="43.00005" lon="1.16361">
        <ele>434.65332</ele>
        <time>2008-07-21T15:25:26Z</time>
      </trkpt>
      <trkpt lat="43" lon="1.16353">
        <ele>436.575928</ele>
        <time>2008-07-21T15:25:45Z</time>
      </trkpt>
      <trkpt lat="42.9999" lon="1.16333">
        <ele>438.017822</ele>
        <time>2008-07-21T15:25:59Z</time>
      </trkpt>
      <trkpt lat="42.99987" lon="1.16301">
        <ele>439.459717</ele>
        <time>2008-07-21T15:26:17Z</time>
      </trkpt>
      <trkpt lat="42.99988" lon="1.16277">
        <ele>439.459717</ele>
        <time>2008-07-21T15:26:33Z</time>
      </trkpt>
      <trkpt lat="42.9999" lon="1.16245">
        <ele>440.901855</ele>
        <time>2008-07-21T15:26:55Z</time>
      </trkpt>
      <trkpt lat="42.99991" lon="1.16218">
        <ele>442.824463</ele>
        <time>2008-07-21T15:27:17Z</time>
      </trkpt>
      <trkpt lat="43.00004" lon="1.16168">
        <ele>445.708374</ele>
        <time>2008-07-21T15:28:07Z</time>
      </trkpt>
      <trkpt lat="43.00002" lon="1.16133">
        <ele>448.111816</ele>
        <time>2008-07-21T15:28:29Z</time>
      </trkpt>
      <trkpt lat="42.99998" lon="1.16106">
        <ele>450.034424</ele>
        <time>2008-07-21T15:28:48Z</time>
      </trkpt>
      <trkpt lat="42.99994" lon="1.16084">
        <ele>452.437622</ele>
        <time>2008-07-21T15:29:06Z</time>
      </trkpt>
      <trkpt lat="42.9999" lon="1.16066">
        <ele>453.398926</ele>
        <time>2008-07-21T15:29:21Z</time>
      </trkpt>
      <trkpt lat="42.99993" lon="1.16057">
        <ele>454.84082</ele>
        <time>2008-07-21T15:29:32Z</time>
      </trkpt>
      <trkpt lat="43.00017" lon="1.16054">
        <ele>456.282959</ele>
        <time>2008-07-21T15:29:57Z</time>
      </trkpt>
      <trkpt lat="43.00035" lon="1.16053">
        <ele>458.205566</ele>
        <time>2008-07-21T15:30:16Z</time>
      </trkpt>
      <trkpt lat="43.00053" lon="1.1605">
        <ele>457.724976</ele>
        <time>2008-07-21T15:30:36Z</time>
      </trkpt>
      <trkpt lat="43.00068" lon="1.16048">
        <ele>457.724976</ele>
        <time>2008-07-21T15:30:52Z</time>
      </trkpt>
      <trkpt lat="43.00076" lon="1.16049">
        <ele>459.647583</ele>
        <time>2008-07-21T15:31:01Z</time>
      </trkpt>
      <trkpt lat="43.00078" lon="1.16052">
        <ele>460.128174</ele>
        <time>2008-07-21T15:31:04Z</time>
      </trkpt>
      <trkpt lat="43.00084" lon="1.16082">
        <ele>456.282959</ele>
        <time>2008-07-21T15:31:24Z</time>
      </trkpt>
      <trkpt lat="43.00089" lon="1.16096">
        <ele>455.321533</ele>
        <time>2008-07-21T15:31:44Z</time>
      </trkpt>
      <trkpt lat="43.00083" lon="1.16092">
        <ele>456.282959</ele>
        <time>2008-07-21T15:32:10Z</time>
      </trkpt>
      <trkpt lat="43.00088" lon="1.16092">
        <ele>455.802246</ele>
        <time>2008-07-21T15:32:24Z</time>
      </trkpt>
      <trkpt lat="43.00082" lon="1.16073">
        <ele>456.76355</ele>
        <time>2008-07-21T15:32:39Z</time>
      </trkpt>
      <trkpt lat="43.00079" lon="1.16047">
        <ele>459.16687</ele>
        <time>2008-07-21T15:32:56Z</time>
      </trkpt>
      <trkpt lat="43.00081" lon="1.16021">
        <ele>460.128174</ele>
        <time>2008-07-21T15:33:16Z</time>
      </trkpt>
      <trkpt lat="43.0008" lon="1.16">
        <ele>461.089478</ele>
        <time>2008-07-21T15:33:31Z</time>
      </trkpt>
      <trkpt lat="43.00084" lon="1.15986">
        <ele>460.128174</ele>
        <time>2008-07-21T15:33:41Z</time>
      </trkpt>
      <trkpt lat="43.00089" lon="1.15982">
        <ele>460.608765</ele>
        <time>2008-07-21T15:33:45Z</time>
      </trkpt>
      <trkpt lat="43.00102" lon="1.15968">
        <ele>461.57019</ele>
        <time>2008-07-21T15:34:03Z</time>
      </trkpt>
      <trkpt lat="43.00108" lon="1.15967">
        <ele>462.531372</ele>
        <time>2008-07-21T15:34:10Z</time>
      </trkpt>
      <trkpt lat="43.00123" lon="1.15963">
        <ele>462.531372</ele>
        <time>2008-07-21T15:34:47Z</time>
      </trkpt>
      <trkpt lat="43.00124" lon="1.15983">
        <ele>461.57019</ele>
        <time>2008-07-21T15:35:15Z</time>
      </trkpt>
      <trkpt lat="43.00109" lon="1.15986">
        <ele>461.57019</ele>
        <time>2008-07-21T15:35:53Z</time>
      </trkpt>
      <trkpt lat="43.00099" lon="1.15995">
        <ele>461.57019</ele>
        <time>2008-07-21T15:36:34Z</time>
      </trkpt>
      <trkpt lat="43.00115" lon="1.15957">
        <ele>461.57019</ele>
        <time>2008-07-21T15:37:40Z</time>
      </trkpt>
      <trkpt lat="43.00149" lon="1.15915">
        <ele>460.608765</ele>
        <time>2008-07-21T15:39:31Z</time>
      </trkpt>
      <trkpt lat="43.00149" lon="1.1591">
        <ele>461.089478</ele>
        <time>2008-07-21T15:39:35Z</time>
      </trkpt>
      <trkpt lat="43.0015" lon="1.1587">
        <ele>463.012085</ele>
        <time>2008-07-21T15:40:00Z</time>
      </trkpt>
      <trkpt lat="43.00149" lon="1.15842">
        <ele>465.415527</ele>
        <time>2008-07-21T15:40:18Z</time>
      </trkpt>
      <trkpt lat="43.00144" lon="1.15809">
        <ele>466.376709</ele>
        <time>2008-07-21T15:40:40Z</time>
      </trkpt>
      <trkpt lat="43.0014" lon="1.15768">
        <ele>468.780029</ele>
        <time>2008-07-21T15:41:05Z</time>
      </trkpt>
      <trkpt lat="43.00134" lon="1.15739">
        <ele>470.221924</ele>
        <time>2008-07-21T15:41:26Z</time>
      </trkpt>
      <trkpt lat="43.00129" lon="1.15719">
        <ele>471.18335</ele>
        <time>2008-07-21T15:41:43Z</time>
      </trkpt>
      <trkpt lat="43.00129" lon="1.15717">
        <ele>470.702637</ele>
        <time>2008-07-21T15:41:45Z</time>
      </trkpt>
      <trkpt lat="43.00128" lon="1.15691">
        <ele>470.221924</ele>
        <time>2008-07-21T15:42:03Z</time>
      </trkpt>
      <trkpt lat="43.00128" lon="1.15684">
        <ele>470.702637</ele>
        <time>2008-07-21T15:42:07Z</time>
      </trkpt>
      <trkpt lat="43.00136" lon="1.1564">
        <ele>469.260742</ele>
        <time>2008-07-21T15:42:38Z</time>
      </trkpt>
      <trkpt lat="43.00136" lon="1.15632">
        <ele>469.741333</ele>
        <time>2008-07-21T15:42:42Z</time>
      </trkpt>
      <trkpt lat="43.00138" lon="1.15597">
        <ele>468.780029</ele>
        <time>2008-07-21T15:43:04Z</time>
      </trkpt>
      <trkpt lat="43.00124" lon="1.15549">
        <ele>469.260742</ele>
        <time>2008-07-21T15:43:27Z</time>
      </trkpt>
      <trkpt lat="43.00116" lon="1.15524">
        <ele>470.221924</ele>
        <time>2008-07-21T15:43:47Z</time>
      </trkpt>
      <trkpt lat="43.00115" lon="1.15521">
        <ele>471.18335</ele>
        <time>2008-07-21T15:43:51Z</time>
      </trkpt>
      <trkpt lat="43.00102" lon="1.15492">
        <ele>472.144653</ele>
        <time>2008-07-21T15:44:16Z</time>
      </trkpt>
      <trkpt lat="43.00095" lon="1.15463">
        <ele>473.106079</ele>
        <time>2008-07-21T15:44:37Z</time>
      </trkpt>
      <trkpt lat="43.00091" lon="1.15425">
        <ele>472.625366</ele>
        <time>2008-07-21T15:44:57Z</time>
      </trkpt>
      <trkpt lat="43.00089" lon="1.15395">
        <ele>473.106079</ele>
        <time>2008-07-21T15:45:17Z</time>
      </trkpt>
      <trkpt lat="43.00086" lon="1.15364">
        <ele>474.067261</ele>
        <time>2008-07-21T15:45:39Z</time>
      </trkpt>
      <trkpt lat="43.00084" lon="1.15327">
        <ele>474.067261</ele>
        <time>2008-07-21T15:46:02Z</time>
      </trkpt>
      <trkpt lat="43.0008" lon="1.15255">
        <ele>473.106079</ele>
        <time>2008-07-21T15:46:42Z</time>
      </trkpt>
      <trkpt lat="43.00086" lon="1.1519">
        <ele>474.067261</ele>
        <time>2008-07-21T15:47:24Z</time>
      </trkpt>
      <trkpt lat="43.0009" lon="1.15158">
        <ele>474.547974</ele>
        <time>2008-07-21T15:47:46Z</time>
      </trkpt>
      <trkpt lat="43.00091" lon="1.15118">
        <ele>474.067261</ele>
        <time>2008-07-21T15:48:06Z</time>
      </trkpt>
      <trkpt lat="43.00089" lon="1.15082">
        <ele>473.58667</ele>
        <time>2008-07-21T15:48:23Z</time>
      </trkpt>
      <trkpt lat="43.0009" lon="1.15045">
        <ele>474.067261</ele>
        <time>2008-07-21T15:48:43Z</time>
      </trkpt>
      <trkpt lat="43.00097" lon="1.15015">
        <ele>472.625366</ele>
        <time>2008-07-21T15:49:05Z</time>
      </trkpt>
      <trkpt lat="43.00098" lon="1.14971">
        <ele>470.702637</ele>
        <time>2008-07-21T15:49:27Z</time>
      </trkpt>
      <trkpt lat="43.00099" lon="1.14934">
        <ele>469.741333</ele>
        <time>2008-07-21T15:49:50Z</time>
      </trkpt>
      <trkpt lat="43.00099" lon="1.1493">
        <ele>468.780029</ele>
        <time>2008-07-21T15:49:53Z</time>
      </trkpt>
      <trkpt lat="43.00096" lon="1.14914">
        <ele>468.299316</ele>
        <time>2008-07-21T15:49:57Z</time>
      </trkpt>
      <trkpt lat="43.00109" lon="1.14744">
        <ele>459.16687</ele>
        <time>2008-07-21T15:51:58Z</time>
      </trkpt>
      <trkpt lat="43.00105" lon="1.1467">
        <ele>460.128174</ele>
        <time>2008-07-21T15:52:41Z</time>
      </trkpt>
      <trkpt lat="43.0012" lon="1.14596">
        <ele>458.686157</ele>
        <time>2008-07-21T15:53:31Z</time>
      </trkpt>
      <trkpt lat="43.0013" lon="1.14564">
        <ele>457.244263</ele>
        <time>2008-07-21T15:53:56Z</time>
      </trkpt>
      <trkpt lat="43.00131" lon="1.14558">
        <ele>457.244263</ele>
        <time>2008-07-21T15:54:00Z</time>
      </trkpt>
      <trkpt lat="43.00128" lon="1.14516">
        <ele>453.879639</ele>
        <time>2008-07-21T15:54:24Z</time>
      </trkpt>
      <trkpt lat="43.00128" lon="1.14496">
        <ele>450.995605</ele>
        <time>2008-07-21T15:54:37Z</time>
      </trkpt>
      <trkpt lat="43.00127" lon="1.14486">
        <ele>449.072998</ele>
        <time>2008-07-21T15:54:44Z</time>
      </trkpt>
      <trkpt lat="43.00128" lon="1.14477">
        <ele>449.072998</ele>
        <time>2008-07-21T15:55:05Z</time>
      </trkpt>
      <trkpt lat="43.00135" lon="1.14452">
        <ele>446.669678</ele>
        <time>2008-07-21T15:55:24Z</time>
      </trkpt>
      <trkpt lat="43.00146" lon="1.14441">
        <ele>449.553711</ele>
        <time>2008-07-21T15:55:48Z</time>
      </trkpt>
      <trkpt lat="43.00157" lon="1.14444">
        <ele>451.476318</ele>
        <time>2008-07-21T15:56:46Z</time>
      </trkpt>
    </trkseg>
  </trk>
</gpx>